Portada
METAR-TAF:

METAR-TAF

Aeropuertos :

Guilin, China

latitud: 25-20N, longitud: 110-18E, altitud: 166 m

Observación

El informe se hizo hace 51 minutos, a las 03:00 UTC
Viento 4 kt del noreste, variando entre norte y sureste
Temperatura 17°C
Humedad 88%
Presión 1021 hPa
Visibilidad: 4500 m
Escasas nubes a una altura de 1000 ft
Nubes dispersas a una altura de 1600 ft
Cielo cubierto a una altura de 4000 ft
lluvia ligera, neblina

METAR: ZGKL 220300Z 05002MPS 010V140 4500 -RA BR FEW010 SCT016 OVC040 17/15 Q1021 NOSIG

Hora: 11:51 (03:51 UTC)

Pronóstico

El informe se hizo hace 8 horas y 38 minutos, a las 19:13 UTC
Pronóstico válido del 22 a las 00 UTC al 22 a las 24 UTC
Viento 2 kt con dirección variable
Visibilidad: 6000 m
Escasas nubes a una altura de 1000 ft
Nubes dispersas a una altura de 2000 ft
Cielo cubierto a una altura de 4000 ft
lluvia ligera

TAF: ZGKL 211913Z 2200/2224 VRB01MPS 6000 -RA FEW010 SCT020 OVC040 TX19/2207Z TN16/2222Z

Observaciones y pronósticos meteorológicos de más de 4000 aeropuertos (mensajes METAR y TAF).

Los puntos amarillos y rojos representan las estaciones disponibles.

Ponga el ratón en el punto deseado para ver el nombre de la estación.

Haga clic para ver las observaciones y los pronósticos meteorológicos.

Para cambiar el mapa : haga clic en los botones verdes con una cruz de color negro para hacer un zoom, en el botón verde con un guión para alejar o en las flechas verdes para mapas adyacentes.


METAR-TAF: